Martinsburg, Missouri
Current Conditions -  °F | °C
As of 1:54 AM on Saturday 20 Dec 2014 (Local Time) from KCOU Reporting Station
Haze Haze  
Wind Chill: -1°   Ceiling: 700
Heat Index:   Visibility: 5mi
Dew Point:   Wind: 5mph
Humidity: 92%   Direction: 120°ESE
Pressure: 30.21"   Gusts: NA
Location:  39.1°N, 91.65°W
Report Text: KCOU 200754Z AUTO 12004KT 5SM BR OVC007 02/01 A3021 RMK AO2 SLP237 T00170006
Loading
Personal Weather Stations






























Interactive Weather Map New forecast layout! Learn more

10-Day Weather Forecast

Advertisements
Track Severe Weather on mobile